Time,TemperatureF,DewpointF,PressureIn,WindDirection,WindDirectionDegrees,WindSpeedMPH,WindSpeedGustMPH,Humidity,HourlyPrecipIn,Conditions,Clouds,dailyrainin,SoftwareType,DateUTC
2013-02-21 00:00:00,14.9,8.1,30.30,North,0,0.0,0.0,74,0.00,CLR,OVC,0.00,WeatherDisplay:10.37,2013-02-21 06:00:00,
2013-02-21 00:05:00,14.7,7.9,30.30,North,0,0.0,0.0,74,0.00,CLR,OVC,0.00,WeatherDisplay:10.37,2013-02-21 06:05:00,
2013-02-21 00:10:00,14.7,8.2,30.30,North,0,0.0,0.0,75,0.00,CLR,OVC,0.00,WeatherDisplay:10.37,2013-02-21 06:10:00,
2013-02-21 00:15:00,14.7,8.2,30.30,North,0,0.0,0.0,75,0.00,CLR,OVC,0.00,WeatherDisplay:10.37,2013-02-21 06:15:00,
2013-02-21 00:20:00,14.5,7.8,30.30,North,0,0.0,0.0,74,0.00,CLR,OVC,0.00,WeatherDisplay:10.37,2013-02-21 06:20:00,
2013-02-21 00:25:00,14.4,7.6,30.30,North,0,0.0,0.0,74,0.00,CLR,OVC,0.00,WeatherDisplay:10.37,2013-02-21 06:25:00,
2013-02-21 00:30:00,14.4,7.6,30.30,North,0,0.0,0.0,74,0.00,CLR,OVC,0.00,WeatherDisplay:10.37,2013-02-21 06:30:00,
2013-02-21 00:35:00,14.2,7.4,30.31,North,0,0.0,0.0,74,0.00,CLR,OVC,0.00,WeatherDisplay:10.37,2013-02-21 06:35:00,
2013-02-21 00:40:00,14.2,7.4,30.31,North,0,0.0,0.0,74,0.00,CLR,OVC,0.00,WeatherDisplay:10.37,2013-02-21 06:40:00,
2013-02-21 00:45:00,14.2,7.4,30.31,North,0,0.0,0.0,74,0.00,CLR,OVC,0.00,WeatherDisplay:10.37,2013-02-21 06:45:00,
2013-02-21 00:50:00,14.2,7.4,30.31,North,0,0.0,0.0,74,0.00,CLR,OVC,0.00,WeatherDisplay:10.37,2013-02-21 06:50:00,
2013-02-21 00:55:00,14.0,7.2,30.30,North,0,0.0,0.0,74,0.00,CLR,OVC,0.00,WeatherDisplay:10.37,2013-02-21 06:55:00,
2013-02-21 01:00:00,14.0,7.2,30.30,North,0,0.0,0.0,74,0.00,CLR,OVC,0.00,WeatherDisplay:10.37,2013-02-21 07:00:00,
2013-02-21 01:05:00,14.0,7.2,30.30,North,0,0.0,0.0,74,0.00,CLR,OVC,0.00,WeatherDisplay:10.37,2013-02-21 07:05:00,
2013-02-21 01:10:00,14.0,7.2,30.30,North,0,0.0,0.0,74,0.00,CLR,OVC,0.00,WeatherDisplay:10.37,2013-02-21 07:10:00,
2013-02-21 01:15:00,14.2,7.7,30.30,North,0,0.0,0.0,75,0.00,CLR,OVC,0.00,WeatherDisplay:10.37,2013-02-21 07:15:00,
2013-02-21 01:20:00,14.2,7.7,30.30,North,0,0.0,0.0,75,0.00,CLR,OVC,0.00,WeatherDisplay:10.37,2013-02-21 07:20:00,
2013-02-21 01:25:00,14.2,7.7,30.30,North,0,0.0,0.0,75,0.00,CLR,OVC,0.00,WeatherDisplay:10.37,2013-02-21 07:25:00,
2013-02-21 01:30:00,14.2,7.7,30.31,North,0,0.0,0.0,75,0.00,CLR,OVC,0.00,WeatherDisplay:10.37,2013-02-21 07:30:00,
2013-02-21 01:35:00,14.2,7.7,30.31,North,0,0.0,0.0,75,0.00,CLR,OVC,0.00,WeatherDisplay:10.37,2013-02-21 07:35:00,
2013-02-21 01:40:00,14.0,7.5,30.31,North,0,0.0,0.0,75,0.00,CLR,OVC,0.00,WeatherDisplay:10.37,2013-02-21 07:40:00,
2013-02-21 01:45:00,14.0,7.5,30.31,North,0,0.0,0.0,75,0.00,CLR,OVC,0.00,WeatherDisplay:10.37,2013-02-21 07:45:00,
2013-02-21 01:50:00,14.0,7.5,30.31,North,0,0.0,0.0,75,0.00,CLR,OVC,0.00,WeatherDisplay:10.37,2013-02-21 07:50:00,
2013-02-21 01:55:00,13.6,7.2,30.31,North,0,0.0,0.0,75,0.00,CLR,OVC,0.00,WeatherDisplay:10.37,2013-02-21 07:55:00,
2013-02-21 02:00:00,13.6,7.2,30.32,North,0,0.0,0.0,75,0.00,CLR,OVC,0.00,WeatherDisplay:10.37,2013-02-21 08:00:00,
2013-02-21 02:05:00,13.3,6.8,30.31,North,0,0.0,0.0,75,0.00,CLR,OVC,0.00,WeatherDisplay:10.37,2013-02-21 08:05:00,
2013-02-21 02:11:00,13.1,6.7,30.32,North,0,0.0,0.0,75,0.00,CLR,OVC,0.00,WeatherDisplay:10.37,2013-02-21 08:11:00,
2013-02-21 02:16:00,13.1,6.7,30.32,North,0,0.0,0.0,75,0.00,CLR,OVC,0.00,WeatherDisplay:10.37,2013-02-21 08:16:00,
2013-02-21 02:21:00,12.9,6.5,30.32,North,0,0.0,0.0,75,0.00,CLR,OVC,0.00,WeatherDisplay:10.37,2013-02-21 08:21:00,
2013-02-21 02:26:00,13.1,6.7,30.32,North,0,0.0,0.0,75,0.00,CLR,OVC,0.00,WeatherDisplay:10.37,2013-02-21 08:26:00,
2013-02-21 02:31:00,13.1,6.7,30.32,North,0,0.0,0.0,75,0.00,CLR,OVC,0.00,WeatherDisplay:10.37,2013-02-21 08:31:00,
2013-02-21 02:36:00,13.1,6.7,30.32,North,0,0.0,0.0,75,0.00,CLR,OVC,0.00,WeatherDisplay:10.37,2013-02-21 08:36:00,
2013-02-21 02:41:00,13.1,6.7,30.32,North,0,0.0,0.0,75,0.00,CLR,OVC,0.00,WeatherDisplay:10.37,2013-02-21 08:41:00,
2013-02-21 02:46:00,13.1,6.7,30.32,North,0,0.0,0.0,75,0.00,CLR,OVC,0.00,WeatherDisplay:10.37,2013-02-21 08:46:00,
2013-02-21 02:51:00,12.9,6.5,30.32,North,0,0.0,0.0,75,0.00,CLR,OVC,0.00,WeatherDisplay:10.37,2013-02-21 08:51:00,
2013-02-21 02:56:00,12.7,6.3,30.32,North,0,0.0,0.0,75,0.00,CLR,OVC,0.00,WeatherDisplay:10.37,2013-02-21 08:56:00,
2013-02-21 03:01:00,12.7,6.3,30.32,North,0,0.0,0.0,75,0.00,CLR,OVC,0.00,WeatherDisplay:10.37,2013-02-21 09:01:00,
2013-02-21 03:06:00,12.7,6.3,30.32,North,0,0.0,0.0,75,0.00,CLR,OVC,0.00,WeatherDisplay:10.37,2013-02-21 09:06:00,
2013-02-21 03:11:00,12.6,5.8,30.32,North,0,0.0,0.0,74,0.00,CLR,OVC,0.00,WeatherDisplay:10.37,2013-02-21 09:11:00,
2013-02-21 03:16:00,12.6,5.8,30.31,North,0,0.0,0.0,74,0.00,CLR,OVC,0.00,WeatherDisplay:10.37,2013-02-21 09:16:00,
2013-02-21 03:21:00,12.6,5.8,30.31,North,0,0.0,0.0,74,0.00,CLR,OVC,0.00,WeatherDisplay:10.37,2013-02-21 09:21:00,
2013-02-21 03:26:00,12.7,6.3,30.31,North,0,0.0,0.0,75,0.00,CLR,OVC,0.00,WeatherDisplay:10.37,2013-02-21 09:26:00,
2013-02-21 03:31:00,12.6,5.8,30.31,North,0,0.0,0.0,74,0.00,CLR,OVC,0.00,WeatherDisplay:10.37,2013-02-21 09:31:00,
2013-02-21 03:36:00,12.6,5.8,30.31,North,0,0.0,0.0,74,0.00,CLR,OVC,0.00,WeatherDisplay:10.37,2013-02-21 09:36:00,
2013-02-21 03:41:00,12.6,5.8,30.30,North,0,0.0,0.0,74,0.00,CLR,OVC,0.00,WeatherDisplay:10.37,2013-02-21 09:41:00,
2013-02-21 03:46:00,12.4,5.4,30.30,North,0,0.0,0.0,73,0.00,CLR,OVC,0.00,WeatherDisplay:10.37,2013-02-21 09:46:00,
2013-02-21 03:51:00,12.4,5.4,30.29,North,0,0.0,0.0,73,0.00,CLR,OVC,0.00,WeatherDisplay:10.37,2013-02-21 09:51:00,
2013-02-21 03:56:00,12.2,5.2,30.29,North,0,0.0,0.0,73,0.00,CLR,OVC,0.00,WeatherDisplay:10.37,2013-02-21 09:56:00,
2013-02-21 04:01:00,12.2,5.2,30.28,North,0,0.0,0.0,73,0.00,CLR,OVC,0.00,WeatherDisplay:10.37,2013-02-21 10:01:00,
2013-02-21 04:06:00,12.2,5.2,30.28,North,0,0.0,0.0,73,0.00,CLR,OVC,0.00,WeatherDisplay:10.37,2013-02-21 10:06:00,
2013-02-21 04:11:00,12.0,5.3,30.28,North,0,0.0,0.0,74,0.00,CLR,OVC,0.00,WeatherDisplay:10.37,2013-02-21 10:11:00,
2013-02-21 04:16:00,12.0,5.3,30.28,North,0,0.0,0.0,74,0.00,CLR,OVC,0.00,WeatherDisplay:10.37,2013-02-21 10:16:00,
2013-02-21 04:21:00,11.8,5.1,30.27,North,0,0.0,0.0,74,0.00,CLR,OVC,0.00,WeatherDisplay:10.37,2013-02-21 10:21:00,
2013-02-21 04:26:00,11.8,5.1,30.28,North,0,0.0,0.0,74,0.00,CLR,OVC,0.00,WeatherDisplay:10.37,2013-02-21 10:26:00,
2013-02-21 04:31:00,11.8,4.8,30.28,North,0,0.0,0.0,73,0.00,CLR,OVC,0.00,WeatherDisplay:10.37,2013-02-21 10:31:00,
2013-02-21 04:36:00,11.8,4.8,30.27,North,0,0.0,0.0,73,0.00,CLR,OVC,0.00,WeatherDisplay:10.37,2013-02-21 10:36:00,
2013-02-21 04:41:00,11.7,4.7,30.26,North,0,0.0,0.0,73,0.00,CLR,OVC,0.00,WeatherDisplay:10.37,2013-02-21 10:41:00,
2013-02-21 04:46:00,11.7,5.0,30.24,North,0,0.0,0.0,74,0.00,CLR,OVC,0.00,WeatherDisplay:10.37,2013-02-21 10:46:00,
2013-02-21 04:51:00,11.7,4.7,30.23,North,0,0.0,0.0,73,0.00,CLR,OVC,0.00,WeatherDisplay:10.37,2013-02-21 10:51:00,
2013-02-21 04:56:00,11.5,4.5,30.22,North,0,0.0,0.0,73,0.00,CLR,OVC,0.00,WeatherDisplay:10.37,2013-02-21 10:56:00,
2013-02-21 05:01:00,11.5,4.8,30.20,North,0,0.0,0.0,74,0.00,CLR,OVC,0.00,WeatherDisplay:10.37,2013-02-21 11:01:00,
2013-02-21 05:06:00,11.5,4.8,30.21,North,0,0.0,0.0,74,0.00,CLR,OVC,0.00,WeatherDisplay:10.37,2013-02-21 11:06:00,
2013-02-21 05:11:00,11.7,4.7,30.25,North,0,0.0,0.0,73,0.00,CLR,OVC,0.00,WeatherDisplay:10.37,2013-02-21 11:11:00,
2013-02-21 05:16:00,11.8,5.1,30.27,North,0,0.0,0.0,74,0.00,CLR,OVC,0.00,WeatherDisplay:10.37,2013-02-21 11:16:00,
2013-02-21 05:21:00,12.0,5.3,30.26,North,0,0.0,0.0,74,0.00,CLR,OVC,0.00,WeatherDisplay:10.37,2013-02-21 11:21:00,
2013-02-21 05:26:00,12.0,5.3,30.27,North,0,0.0,0.0,74,0.00,CLR,OVC,0.00,WeatherDisplay:10.37,2013-02-21 11:26:00,
2013-02-21 05:31:00,12.2,5.5,30.28,North,0,0.0,0.0,74,0.00,CLR,OVC,0.00,WeatherDisplay:10.37,2013-02-21 11:31:00,
2013-02-21 05:36:00,12.2,5.2,30.30,North,0,0.0,0.0,73,0.00,CLR,OVC,0.00,WeatherDisplay:10.37,2013-02-21 11:36:00,
2013-02-21 05:41:00,12.4,5.4,30.31,North,0,0.0,0.0,73,0.00,CLR,OVC,0.00,WeatherDisplay:10.37,2013-02-21 11:41:00,
2013-02-21 05:46:00,12.4,5.4,30.30,North,0,0.0,0.0,73,0.00,CLR,OVC,0.00,WeatherDisplay:10.37,2013-02-21 11:46:00,
2013-02-21 05:51:00,12.2,5.2,30.30,North,0,0.0,0.0,73,0.00,CLR,OVC,0.00,WeatherDisplay:10.37,2013-02-21 11:51:00,
2013-02-21 05:56:00,12.2,5.2,30.31,North,0,0.0,0.0,73,0.00,CLR,OVC,0.00,WeatherDisplay:10.37,2013-02-21 11:56:00,
2013-02-21 06:01:00,12.2,5.2,30.30,North,0,0.0,0.0,73,0.00,CLR,OVC,0.00,WeatherDisplay:10.37,2013-02-21 12:01:00,
2013-02-21 06:06:00,12.0,5.0,30.30,North,0,0.0,0.0,73,0.00,CLR,OVC,0.00,WeatherDisplay:10.37,2013-02-21 12:06:00,
2013-02-21 06:11:00,12.0,5.0,30.29,North,0,0.0,0.0,73,0.00,CLR,OVC,0.00,WeatherDisplay:10.37,2013-02-21 12:11:00,
2013-02-21 06:16:00,11.8,4.8,30.29,North,0,0.0,0.0,73,0.00,CLR,OVC,0.00,WeatherDisplay:10.37,2013-02-21 12:16:00,
2013-02-21 06:21:00,12.0,5.0,30.29,North,0,0.0,0.0,73,0.00,CLR,OVC,0.00,WeatherDisplay:10.37,2013-02-21 12:21:00,
2013-02-21 06:26:00,11.8,4.8,30.30,North,0,0.0,0.0,73,0.00,CLR,OVC,0.00,WeatherDisplay:10.37,2013-02-21 12:26:00,
2013-02-21 06:31:00,12.0,5.0,30.28,North,0,0.0,0.0,73,0.00,CLR,OVC,0.00,WeatherDisplay:10.37,2013-02-21 12:31:00,
2013-02-21 06:36:00,12.2,5.2,30.27,North,0,0.0,0.0,73,0.00,CLR,OVC,0.00,WeatherDisplay:10.37,2013-02-21 12:36:00,
2013-02-21 06:41:00,12.4,5.4,30.28,North,0,0.0,0.0,73,0.00,CLR,OVC,0.00,WeatherDisplay:10.37,2013-02-21 12:41:00,
2013-02-21 06:46:00,12.4,5.4,30.29,North,0,0.0,0.0,73,0.00,CLR,OVC,0.00,WeatherDisplay:10.37,2013-02-21 12:46:00,
2013-02-21 06:51:00,12.6,5.8,30.29,North,0,0.0,0.0,74,0.00,CLR,OVC,0.00,WeatherDisplay:10.37,2013-02-21 12:51:00,
2013-02-21 06:56:00,12.6,5.8,30.29,North,0,0.0,0.0,74,0.00,CLR,OVC,0.00,WeatherDisplay:10.37,2013-02-21 12:56:00,
2013-02-21 07:01:00,12.4,5.4,30.28,North,0,0.0,0.0,73,0.00,CLR,OVC,0.00,WeatherDisplay:10.37,2013-02-21 13:01:00,
2013-02-21 07:06:00,12.4,5.4,30.28,North,0,0.0,0.0,73,0.00,CLR,OVC,0.00,WeatherDisplay:10.37,2013-02-21 13:06:00,
2013-02-21 07:11:00,12.4,5.4,30.28,North,0,0.0,0.0,73,0.00,CLR,OVC,0.00,WeatherDisplay:10.37,2013-02-21 13:11:00,
2013-02-21 07:17:00,12.6,5.5,30.29,North,0,0.0,0.0,73,0.00,CLR,OVC,0.00,WeatherDisplay:10.37,2013-02-21 13:17:00,
2013-02-21 07:21:00,12.6,5.5,30.29,North,0,0.0,0.0,73,0.00,CLR,OVC,0.00,WeatherDisplay:10.37,2013-02-21 13:21:00,
2013-02-21 07:26:00,12.6,5.5,30.28,North,0,0.0,0.0,73,0.00,CLR,OVC,0.00,WeatherDisplay:10.37,2013-02-21 13:26:00,
2013-02-21 07:31:00,12.6,5.5,30.28,North,0,0.0,0.0,73,0.00,CLR,OVC,0.00,WeatherDisplay:10.37,2013-02-21 13:31:00,
2013-02-21 07:36:00,12.7,6.0,30.27,North,0,0.0,0.0,74,0.00,CLR,OVC,0.00,WeatherDisplay:10.37,2013-02-21 13:36:00,
2013-02-21 07:42:00,12.9,6.2,30.26,North,0,0.0,0.0,74,0.00,CLR,OVC,0.00,WeatherDisplay:10.37,2013-02-21 13:42:00,
2013-02-21 07:47:00,13.1,6.4,30.26,North,0,0.0,0.0,74,0.00,CLR,OVC,0.00,WeatherDisplay:10.37,2013-02-21 13:47:00,
2013-02-21 07:52:00,13.3,6.5,30.26,North,0,0.0,0.0,74,0.00,CLR,OVC,0.00,WeatherDisplay:10.37,2013-02-21 13:52:00,
2013-02-21 07:57:00,13.3,6.5,30.27,North,0,0.0,0.0,74,0.00,CLR,OVC,0.00,WeatherDisplay:10.37,2013-02-21 13:57:00,
2013-02-21 08:02:00,13.5,6.7,30.26,North,0,0.0,0.0,74,0.00,CLR,OVC,0.00,WeatherDisplay:10.37,2013-02-21 14:02:00,
2013-02-21 08:07:00,13.5,6.7,30.27,North,0,0.0,0.0,74,0.00,CLR,OVC,0.00,WeatherDisplay:10.37,2013-02-21 14:07:00,
2013-02-21 08:12:00,13.6,6.6,30.27,North,0,0.0,0.0,73,0.00,CLR,OVC,0.00,WeatherDisplay:10.37,2013-02-21 14:12:00,
2013-02-21 08:17:00,14.0,6.9,30.28,North,0,0.0,0.0,73,0.00,CLR,OVC,0.00,WeatherDisplay:10.37,2013-02-21 14:17:00,
2013-02-21 08:22:00,14.4,7.3,30.29,North,0,0.0,0.0,73,0.00,CLR,OVC,0.00,WeatherDisplay:10.37,2013-02-21 14:22:00,
2013-02-21 08:27:00,14.7,7.6,30.29,North,0,0.0,0.0,73,0.00,CLR,OVC,0.00,WeatherDisplay:10.37,2013-02-21 14:27:00,
2013-02-21 08:32:00,14.9,7.8,30.29,North,0,0.0,0.0,73,0.00,CLR,OVC,0.00,WeatherDisplay:10.37,2013-02-21 14:32:00,
2013-02-21 08:37:00,15.3,8.2,30.28,North,0,0.0,0.0,73,0.00,CLR,OVC,0.00,WeatherDisplay:10.37,2013-02-21 14:37:00,
2013-02-21 08:42:00,15.3,8.5,30.27,North,0,0.0,0.0,74,0.00,CLR,OVC,0.00,WeatherDisplay:10.37,2013-02-21 14:42:00,
2013-02-21 08:47:00,15.3,8.2,30.27,North,0,0.0,0.0,73,0.00,CLR,OVC,0.00,WeatherDisplay:10.37,2013-02-21 14:47:00,
2013-02-21 08:52:00,15.4,8.3,30.28,North,0,0.0,0.0,73,0.00,CLR,OVC,0.00,WeatherDisplay:10.37,2013-02-21 14:52:00,
2013-02-21 08:57:00,15.8,8.7,30.27,North,0,0.0,0.0,73,0.00,CLR,OVC,0.00,WeatherDisplay:10.37,2013-02-21 14:57:00,
2013-02-21 09:02:00,15.8,8.7,30.27,North,0,0.0,0.0,73,0.00,CLR,OVC,0.00,WeatherDisplay:10.37,2013-02-21 15:02:00,
2013-02-21 09:07:00,16.2,9.0,30.27,North,0,0.0,0.0,73,0.00,CLR,OVC,0.00,WeatherDisplay:10.37,2013-02-21 15:07:00,
2013-02-21 09:12:00,16.2,9.0,30.26,North,0,0.0,0.0,73,0.00,CLR,OVC,0.00,WeatherDisplay:10.37,2013-02-21 15:12:00,
2013-02-21 09:17:00,16.3,9.5,30.27,North,0,0.0,0.0,74,0.00,CLR,OVC,0.00,WeatherDisplay:10.37,2013-02-21 15:17:00,
2013-02-21 09:22:00,16.3,9.5,30.27,North,0,0.0,0.0,74,0.00,CLR,OVC,0.00,WeatherDisplay:10.37,2013-02-21 15:22:00,
2013-02-21 09:27:00,16.5,9.7,30.27,North,0,0.0,0.0,74,0.00,CLR,OVC,0.00,WeatherDisplay:10.37,2013-02-21 15:27:00,
2013-02-21 09:32:00,16.7,9.8,30.26,North,0,0.0,0.0,74,0.00,CLR,OVC,0.00,WeatherDisplay:10.37,2013-02-21 15:32:00,
2013-02-21 09:37:00,16.7,9.8,30.27,North,0,0.0,0.0,74,0.00,CLR,OVC,0.00,WeatherDisplay:10.37,2013-02-21 15:37:00,
2013-02-21 09:42:00,16.7,9.8,30.26,North,0,0.0,0.0,74,0.00,CLR,OVC,0.00,WeatherDisplay:10.37,2013-02-21 15:42:00,
2013-02-21 09:47:00,16.9,10.0,30.26,North,0,0.0,0.0,74,0.00,CLR,OVC,0.00,WeatherDisplay:10.37,2013-02-21 15:47:00,
2013-02-21 09:52:00,16.9,10.0,30.27,North,0,0.0,0.0,74,0.00,CLR,OVC,0.00,WeatherDisplay:10.37,2013-02-21 15:52:00,
2013-02-21 09:57:00,17.1,10.2,30.26,North,0,0.0,0.0,74,0.00,CLR,OVC,0.00,WeatherDisplay:10.37,2013-02-21 15:57:00,
2013-02-21 10:02:00,17.1,10.2,30.27,North,0,0.0,0.0,74,0.00,CLR,OVC,0.00,WeatherDisplay:10.37,2013-02-21 16:02:00,
2013-02-21 10:07:00,17.2,10.4,30.27,North,0,0.0,0.0,74,0.00,CLR,OVC,0.00,WeatherDisplay:10.37,2013-02-21 16:07:00,
2013-02-21 10:12:00,17.6,10.7,30.27,North,0,0.0,0.0,74,0.00,CLR,OVC,0.00,WeatherDisplay:10.37,2013-02-21 16:12:00,
2013-02-21 10:17:00,17.6,10.4,30.28,North,0,0.0,0.0,73,0.00,CLR,OVC,0.00,WeatherDisplay:10.37,2013-02-21 16:17:00,
2013-02-21 10:22:00,17.6,10.7,30.27,North,0,0.0,0.0,74,0.00,CLR,OVC,0.00,WeatherDisplay:10.37,2013-02-21 16:22:00,
2013-02-21 10:27:00,18.0,10.8,30.28,North,0,0.0,0.0,73,0.00,CLR,OVC,0.00,WeatherDisplay:10.37,2013-02-21 16:27:00,
2013-02-21 10:32:00,18.1,10.9,30.28,North,0,0.0,0.0,73,0.00,CLR,OVC,0.00,WeatherDisplay:10.37,2013-02-21 16:32:00,
2013-02-21 10:37:00,18.3,11.1,30.27,North,0,0.0,0.0,73,0.00,CLR,OVC,0.00,WeatherDisplay:10.37,2013-02-21 16:37:00,
2013-02-21 10:42:00,18.7,11.8,30.27,North,0,0.0,0.0,74,0.00,CLR,OVC,0.00,WeatherDisplay:10.37,2013-02-21 16:42:00,
2013-02-21 10:47:00,18.9,11.9,30.27,North,0,0.0,0.0,74,0.00,CLR,OVC,0.00,WeatherDisplay:10.37,2013-02-21 16:47:00,
2013-02-21 10:52:00,19.0,12.1,30.26,North,0,0.0,0.0,74,0.00,CLR,OVC,0.00,WeatherDisplay:10.37,2013-02-21 16:52:00,
2013-02-21 10:57:00,19.2,12.3,30.27,North,0,0.0,0.0,74,0.00,CLR,OVC,0.00,WeatherDisplay:10.37,2013-02-21 16:57:00,
2013-02-21 11:02:00,19.6,12.6,30.26,North,0,0.0,0.0,74,0.00,CLR,OVC,0.00,WeatherDisplay:10.37,2013-02-21 17:02:00,
2013-02-21 11:07:00,19.8,12.8,30.25,North,0,0.0,0.0,74,0.00,CLR,OVC,0.00,WeatherDisplay:10.37,2013-02-21 17:07:00,
2013-02-21 11:12:00,19.8,12.8,30.25,North,0,0.0,0.0,74,0.00,CLR,OVC,0.00,WeatherDisplay:10.37,2013-02-21 17:12:00,
2013-02-21 11:17:00,19.9,13.0,30.24,North,0,0.0,0.0,74,0.00,CLR,OVC,0.00,WeatherDisplay:10.37,2013-02-21 17:17:00,
2013-02-21 11:22:00,20.1,13.2,30.24,North,0,0.0,0.0,74,0.00,CLR,OVC,0.00,WeatherDisplay:10.37,2013-02-21 17:22:00,
2013-02-21 11:27:00,20.3,13.0,30.25,North,0,0.0,0.0,73,0.00,CLR,OVC,0.00,WeatherDisplay:10.37,2013-02-21 17:27:00,
2013-02-21 11:32:00,20.5,13.2,30.24,North,0,0.0,0.0,73,0.00,CLR,OVC,0.00,WeatherDisplay:10.37,2013-02-21 17:32:00,
2013-02-21 11:37:00,20.8,13.5,30.24,North,0,0.0,0.0,73,0.00,CLR,OVC,0.00,WeatherDisplay:10.37,2013-02-21 17:37:00,
2013-02-21 11:42:00,21.0,13.7,30.24,North,0,0.0,0.0,73,0.00,CLR,OVC,0.00,WeatherDisplay:10.37,2013-02-21 17:42:00,
2013-02-21 11:47:00,21.6,14.2,30.24,North,0,0.0,0.0,73,0.00,CLR,OVC,0.00,WeatherDisplay:10.37,2013-02-21 17:47:00,
2013-02-21 11:52:00,21.6,14.2,30.23,North,0,0.0,0.0,73,0.00,CLR,OVC,0.00,WeatherDisplay:10.37,2013-02-21 17:52:00,
2013-02-21 11:57:00,21.7,14.4,30.22,North,0,0.0,0.0,73,0.00,CLR,OVC,0.00,WeatherDisplay:10.37,2013-02-21 17:57:00,
2013-02-21 12:02:00,21.9,14.6,30.22,North,0,0.0,0.0,73,0.00,CLR,OVC,0.00,WeatherDisplay:10.37,2013-02-21 18:02:00,
2013-02-21 12:08:00,21.9,14.6,30.21,North,0,0.0,0.0,73,0.00,CLR,OVC,0.00,WeatherDisplay:10.37,2013-02-21 18:08:00,
2013-02-21 12:13:00,22.1,14.8,30.21,North,0,0.0,0.0,73,0.00,CLR,OVC,0.00,WeatherDisplay:10.37,2013-02-21 18:13:00,
2013-02-21 12:18:00,22.1,14.8,30.21,North,0,0.0,0.0,73,0.00,CLR,OVC,0.00,WeatherDisplay:10.37,2013-02-21 18:18:00,
2013-02-21 12:23:00,22.3,14.9,30.21,North,0,0.0,0.0,73,0.00,CLR,OVC,0.00,WeatherDisplay:10.37,2013-02-21 18:23:00,
2013-02-21 12:28:00,22.6,15.3,30.21,North,0,0.0,0.0,73,0.00,CLR,OVC,0.00,WeatherDisplay:10.37,2013-02-21 18:28:00,
2013-02-21 12:33:00,22.6,15.3,30.19,North,0,0.0,0.0,73,0.00,CLR,OVC,0.00,WeatherDisplay:10.37,2013-02-21 18:33:00,
2013-02-21 12:38:00,22.5,15.1,30.19,North,0,0.0,0.0,73,0.00,CLR,OVC,0.00,WeatherDisplay:10.37,2013-02-21 18:38:00,
2013-02-21 12:43:00,22.6,15.0,30.18,North,0,0.0,0.0,72,0.00,CLR,OVC,0.00,WeatherDisplay:10.37,2013-02-21 18:43:00,
2013-02-21 12:48:00,22.6,15.3,30.18,North,0,0.0,0.0,73,0.00,CLR,OVC,0.00,WeatherDisplay:10.37,2013-02-21 18:48:00,
2013-02-21 12:53:00,22.8,15.5,30.18,North,0,0.0,0.0,73,0.00,CLR,OVC,0.00,WeatherDisplay:10.37,2013-02-21 18:53:00,
2013-02-21 12:58:00,22.8,15.5,30.17,North,0,0.0,0.0,73,0.00,CLR,OVC,0.00,WeatherDisplay:10.37,2013-02-21 18:58:00,
2013-02-21 13:03:00,23.0,15.6,30.16,North,0,0.0,0.0,73,0.00,CLR,OVC,0.00,WeatherDisplay:10.37,2013-02-21 19:03:00,
2013-02-21 13:08:00,22.8,15.5,30.17,North,0,0.0,0.0,73,0.00,CLR,OVC,0.00,WeatherDisplay:10.37,2013-02-21 19:08:00,
2013-02-21 13:13:00,23.0,15.6,30.17,North,0,0.0,0.0,73,0.00,CLR,OVC,0.00,WeatherDisplay:10.37,2013-02-21 19:13:00,
2013-02-21 13:18:00,23.0,15.6,30.17,North,0,0.0,0.0,73,0.00,CLR,OVC,0.00,WeatherDisplay:10.37,2013-02-21 19:18:00,
2013-02-21 13:23:00,23.0,15.6,30.16,North,0,0.0,0.0,73,0.00,CLR,OVC,0.00,WeatherDisplay:10.37,2013-02-21 19:23:00,
2013-02-21 13:28:00,23.0,15.6,30.16,North,0,0.0,0.0,73,0.00,CLR,OVC,0.00,WeatherDisplay:10.37,2013-02-21 19:28:00,
2013-02-21 13:33:00,22.8,15.5,30.16,North,0,0.0,0.0,73,0.00,CLR,OVC,0.00,WeatherDisplay:10.37,2013-02-21 19:33:00,
2013-02-21 13:38:00,23.0,15.6,30.16,North,0,0.0,0.0,73,0.00,CLR,OVC,0.00,WeatherDisplay:10.37,2013-02-21 19:38:00,
2013-02-21 13:43:00,23.0,15.6,30.16,North,0,0.0,0.0,73,0.00,CLR,OVC,0.00,WeatherDisplay:10.37,2013-02-21 19:43:00,
2013-02-21 13:48:00,22.8,15.5,30.16,North,0,0.0,0.0,73,0.00,CLR,OVC,0.00,WeatherDisplay:10.37,2013-02-21 19:48:00,
2013-02-21 13:53:00,22.6,15.3,30.15,North,0,0.0,0.0,73,0.00,CLR,OVC,0.00,WeatherDisplay:10.37,2013-02-21 19:53:00,
2013-02-21 13:58:00,22.8,15.5,30.15,North,0,0.0,0.0,73,0.00,CLR,OVC,0.00,WeatherDisplay:10.37,2013-02-21 19:58:00,
2013-02-21 14:03:00,22.6,15.3,30.15,North,0,0.0,0.0,73,0.00,CLR,OVC,0.00,WeatherDisplay:10.37,2013-02-21 20:03:00,
2013-02-21 14:08:00,22.6,15.3,30.14,North,0,0.0,0.0,73,0.00,CLR,OVC,0.00,WeatherDisplay:10.37,2013-02-21 20:08:00,
2013-02-21 14:13:00,22.8,15.5,30.14,North,0,0.0,0.0,73,0.00,CLR,OVC,0.00,WeatherDisplay:10.37,2013-02-21 20:13:00,
2013-02-21 14:18:00,22.8,15.5,30.14,North,0,0.0,0.0,73,0.00,CLR,OVC,0.00,WeatherDisplay:10.37,2013-02-21 20:18:00,
2013-02-21 14:23:00,22.8,15.5,30.14,North,0,0.0,0.0,73,0.00,CLR,OVC,0.00,WeatherDisplay:10.37,2013-02-21 20:23:00,
2013-02-21 14:28:00,22.6,15.3,30.14,North,0,0.0,0.0,73,0.00,CLR,OVC,0.00,WeatherDisplay:10.37,2013-02-21 20:28:00,
2013-02-21 14:33:00,22.6,15.3,30.13,North,0,0.0,0.0,73,0.00,CLR,OVC,0.00,WeatherDisplay:10.37,2013-02-21 20:33:00,
2013-02-21 14:38:00,22.6,15.3,30.12,North,0,0.0,0.0,73,0.00,CLR,OVC,0.00,WeatherDisplay:10.37,2013-02-21 20:38:00,
2013-02-21 14:43:00,22.6,15.6,30.12,North,0,0.0,0.0,74,0.00,CLR,OVC,0.00,WeatherDisplay:10.37,2013-02-21 20:43:00,
2013-02-21 14:48:00,22.6,15.3,30.12,North,0,0.0,0.0,73,0.00,CLR,OVC,0.00,WeatherDisplay:10.37,2013-02-21 20:48:00,
2013-02-21 14:53:00,22.6,15.3,30.12,North,0,0.0,0.0,73,0.00,CLR,OVC,0.00,WeatherDisplay:10.37,2013-02-21 20:53:00,
2013-02-21 14:58:00,22.6,15.3,30.12,North,0,0.0,0.0,73,0.00,CLR,OVC,0.00,WeatherDisplay:10.37,2013-02-21 20:58:00,
2013-02-21 15:03:00,22.5,15.1,30.12,North,0,0.0,0.0,73,0.00,CLR,OVC,0.00,WeatherDisplay:10.37,2013-02-21 21:03:00,
2013-02-21 15:08:00,22.3,14.9,30.12,North,0,0.0,0.0,73,0.00,CLR,OVC,0.00,WeatherDisplay:10.37,2013-02-21 21:08:00,
2013-02-21 15:13:00,22.5,15.1,30.11,North,0,0.0,0.0,73,0.00,CLR,OVC,0.00,WeatherDisplay:10.37,2013-02-21 21:13:00,
2013-02-21 15:18:00,22.3,14.9,30.11,North,0,0.0,0.0,73,0.00,CLR,OVC,0.00,WeatherDisplay:10.37,2013-02-21 21:18:00,
2013-02-21 15:23:00,22.5,15.1,30.11,North,0,0.0,0.0,73,0.00,CLR,OVC,0.00,WeatherDisplay:10.37,2013-02-21 21:23:00,
2013-02-21 15:28:00,22.5,15.1,30.10,North,0,0.0,0.0,73,0.00,CLR,OVC,0.00,WeatherDisplay:10.37,2013-02-21 21:28:00,
2013-02-21 15:33:00,22.3,14.9,30.10,North,0,0.0,0.0,73,0.00,CLR,OVC,0.00,WeatherDisplay:10.37,2013-02-21 21:33:00,
2013-02-21 15:38:00,22.3,15.2,30.11,North,0,0.0,0.0,74,0.00,CLR,OVC,0.00,WeatherDisplay:10.37,2013-02-21 21:38:00,
2013-02-21 15:43:00,22.3,14.9,30.10,North,0,0.0,0.0,73,0.00,CLR,OVC,0.00,WeatherDisplay:10.37,2013-02-21 21:43:00,
2013-02-21 15:48:00,22.3,15.2,30.10,North,0,0.0,0.0,74,0.00,CLR,OVC,0.00,WeatherDisplay:10.37,2013-02-21 21:48:00,
2013-02-21 15:53:00,22.3,14.9,30.10,North,0,0.0,0.0,73,0.00,CLR,OVC,0.00,WeatherDisplay:10.37,2013-02-21 21:53:00,
2013-02-21 15:58:00,22.3,14.9,30.10,North,0,0.0,0.0,73,0.00,CLR,OVC,0.00,WeatherDisplay:10.37,2013-02-21 21:58:00,
2013-02-21 16:03:00,22.6,15.3,30.09,North,0,0.0,0.0,73,0.00,CLR,OVC,0.00,WeatherDisplay:10.37,2013-02-21 22:03:00,
2013-02-21 16:08:00,22.5,15.1,30.10,North,0,0.0,0.0,73,0.00,CLR,OVC,0.00,WeatherDisplay:10.37,2013-02-21 22:08:00,
2013-02-21 16:13:00,22.5,15.4,30.09,North,0,0.0,0.0,74,0.00,CLR,OVC,0.00,WeatherDisplay:10.37,2013-02-21 22:13:00,
2013-02-21 16:18:00,22.3,14.9,30.09,North,0,0.0,0.0,73,0.00,CLR,OVC,0.00,WeatherDisplay:10.37,2013-02-21 22:18:00,
2013-02-21 16:23:00,22.3,14.9,30.07,North,0,0.0,0.0,73,0.00,CLR,OVC,0.00,WeatherDisplay:10.37,2013-02-21 22:23:00,
2013-02-21 16:28:00,22.1,14.8,30.08,North,0,0.0,0.0,73,0.00,CLR,OVC,0.00,WeatherDisplay:10.37,2013-02-21 22:28:00,
2013-02-21 16:33:00,22.1,14.8,30.08,North,0,0.0,0.0,73,0.00,CLR,OVC,0.00,WeatherDisplay:10.37,2013-02-21 22:33:00,
2013-02-21 16:38:00,22.1,15.1,30.07,North,0,0.0,0.0,74,0.00,CLR,OVC,0.00,WeatherDisplay:10.37,2013-02-21 22:38:00,
2013-02-21 16:43:00,22.1,14.8,30.07,North,0,0.0,0.0,73,0.00,CLR,OVC,0.00,WeatherDisplay:10.37,2013-02-21 22:43:00,
2013-02-21 16:48:00,21.9,14.6,30.07,North,0,0.0,0.0,73,0.00,CLR,OVC,0.00,WeatherDisplay:10.37,2013-02-21 22:48:00,
2013-02-21 16:53:00,21.9,14.6,30.06,North,0,0.0,0.0,73,0.00,CLR,OVC,0.00,WeatherDisplay:10.37,2013-02-21 22:53:00,
2013-02-21 16:58:00,22.1,14.8,30.07,North,0,0.0,0.0,73,0.00,CLR,OVC,0.00,WeatherDisplay:10.37,2013-02-21 22:58:00,
2013-02-21 17:03:00,22.1,14.8,30.07,North,0,0.0,0.0,73,0.00,CLR,OVC,0.00,WeatherDisplay:10.37,2013-02-21 23:03:00,
2013-02-21 17:08:00,22.1,14.8,30.07,North,0,0.0,0.0,73,0.00,CLR,OVC,0.00,WeatherDisplay:10.37,2013-02-21 23:08:00,
2013-02-21 17:14:00,21.9,14.3,30.07,North,0,0.0,0.0,72,0.00,CLR,OVC,0.00,WeatherDisplay:10.37,2013-02-21 23:14:00,
2013-02-21 17:19:00,21.9,14.3,30.07,North,0,0.0,0.0,72,0.00,CLR,OVC,0.00,WeatherDisplay:10.37,2013-02-21 23:19:00,
2013-02-21 17:24:00,21.9,14.3,30.06,North,0,0.0,0.0,72,0.00,CLR,OVC,0.00,WeatherDisplay:10.37,2013-02-21 23:24:00,
2013-02-21 17:29:00,21.9,14.0,30.06,North,0,0.0,0.0,71,0.00,CLR,OVC,0.00,WeatherDisplay:10.37,2013-02-21 23:29:00,
2013-02-21 17:34:00,21.9,13.6,30.05,North,0,0.0,0.0,70,0.00,CLR,OVC,0.00,WeatherDisplay:10.37,2013-02-21 23:34:00,
2013-02-21 17:39:00,21.9,13.3,30.05,North,0,0.0,0.0,69,0.00,CLR,OVC,0.00,WeatherDisplay:10.37,2013-02-21 23:39:00,
2013-02-21 17:44:00,21.9,13.0,30.05,North,0,0.0,0.0,68,0.00,CLR,OVC,0.00,WeatherDisplay:10.37,2013-02-21 23:44:00,
2013-02-21 17:49:00,21.9,12.6,30.05,North,0,0.0,0.0,67,0.00,CLR,OVC,0.00,WeatherDisplay:10.37,2013-02-21 23:49:00,
2013-02-21 17:54:00,21.9,12.3,30.05,North,0,0.0,0.0,66,0.00,CLR,OVC,0.00,WeatherDisplay:10.37,2013-02-21 23:54:00,
2013-02-21 17:59:00,21.9,11.9,30.04,North,0,0.0,0.0,65,0.00,CLR,OVC,0.00,WeatherDisplay:10.37,2013-02-21 23:59:00,
2013-02-21 18:04:00,21.9,11.2,30.04,North,0,0.0,0.0,63,0.00,CLR,OVC,0.00,WeatherDisplay:10.37,2013-02-22 00:04:00,
2013-02-21 18:09:00,21.9,10.1,30.04,North,0,0.0,0.0,60,0.00,CLR,OVC,0.00,WeatherDisplay:10.37,2013-02-22 00:09:00,
2013-02-21 18:14:00,21.9,8.6,30.04,North,0,0.0,0.0,56,0.00,CLR,OVC,0.00,WeatherDisplay:10.37,2013-02-22 00:14:00,
2013-02-21 18:19:00,21.9,7.8,30.04,North,0,0.0,0.0,54,0.00,CLR,OVC,0.00,WeatherDisplay:10.37,2013-02-22 00:19:00,
2013-02-21 18:24:00,22.1,7.6,30.04,North,0,0.0,0.0,53,0.00,CLR,OVC,0.00,WeatherDisplay:10.37,2013-02-22 00:24:00,
2013-02-21 18:29:00,22.1,7.1,30.05,North,0,0.0,0.0,52,0.00,CLR,OVC,0.00,WeatherDisplay:10.37,2013-02-22 00:29:00,
2013-02-21 18:34:00,22.3,6.4,30.05,North,0,0.0,0.0,50,0.00,CLR,OVC,0.00,WeatherDisplay:10.37,2013-02-22 00:34:00,
2013-02-21 18:39:00,22.3,6.0,30.05,North,0,0.0,0.0,49,0.00,CLR,OVC,0.00,WeatherDisplay:10.37,2013-02-22 00:39:00,
2013-02-21 18:44:00,22.3,5.1,30.05,North,0,0.0,0.0,47,0.00,CLR,OVC,0.00,WeatherDisplay:10.37,2013-02-22 00:44:00,
2013-02-21 18:49:00,22.3,5.1,30.04,North,0,0.0,0.0,47,0.00,CLR,OVC,0.00,WeatherDisplay:10.37,2013-02-22 00:49:00,
2013-02-21 18:54:00,22.3,4.6,30.04,North,0,0.0,0.0,46,0.00,CLR,OVC,0.00,WeatherDisplay:10.37,2013-02-22 00:54:00,
2013-02-21 18:59:00,22.5,4.8,30.04,North,0,0.0,0.0,46,0.00,CLR,OVC,0.00,WeatherDisplay:10.37,2013-02-22 00:59:00,
2013-02-21 19:04:00,22.5,4.8,30.04,North,0,0.0,0.0,46,0.00,CLR,OVC,0.00,WeatherDisplay:10.37,2013-02-22 01:04:00,
2013-02-21 19:09:00,22.5,4.8,30.03,North,0,0.0,0.0,46,0.00,CLR,OVC,0.00,WeatherDisplay:10.37,2013-02-22 01:09:00,
2013-02-21 19:14:00,22.3,6.4,30.03,North,0,0.0,0.0,50,0.00,CLR,OVC,0.00,WeatherDisplay:10.37,2013-02-22 01:14:00,
2013-02-21 19:19:00,22.1,7.6,30.03,North,0,0.0,0.0,53,0.00,CLR,OVC,0.00,WeatherDisplay:10.37,2013-02-22 01:19:00,
2013-02-21 19:24:00,22.1,7.6,30.02,North,0,0.0,0.0,53,0.00,CLR,OVC,0.00,WeatherDisplay:10.37,2013-02-22 01:24:00,
2013-02-21 19:29:00,22.1,6.7,30.01,North,0,0.0,0.0,51,0.00,CLR,OVC,0.00,WeatherDisplay:10.37,2013-02-22 01:29:00,
2013-02-21 19:34:00,22.1,5.4,30.01,North,0,0.0,0.0,48,0.00,CLR,OVC,0.00,WeatherDisplay:10.37,2013-02-22 01:34:00,
2013-02-21 19:39:00,22.1,4.0,30.00,North,0,0.0,0.0,45,0.00,CLR,OVC,0.00,WeatherDisplay:10.37,2013-02-22 01:39:00,
2013-02-21 19:44:00,22.1,2.5,30.00,North,0,0.0,0.0,42,0.00,CLR,OVC,0.00,WeatherDisplay:10.37,2013-02-22 01:44:00,
2013-02-21 19:49:00,22.1,0.3,29.99,North,0,0.0,0.0,38,0.00,CLR,OVC,0.00,WeatherDisplay:10.37,2013-02-22 01:49:00,
2013-02-21 19:54:00,22.1,-1.4,29.98,North,0,0.0,0.0,35,0.00,CLR,OVC,0.00,WeatherDisplay:10.37,2013-02-22 01:54:00,
2013-02-21 19:59:00,22.3,-3.2,29.98,North,0,0.0,0.0,32,0.00,CLR,OVC,0.00,WeatherDisplay:10.37,2013-02-22 01:59:00,
2013-02-21 20:04:00,22.1,-4.7,29.98,North,0,0.0,0.0,30,0.00,CLR,OVC,0.00,WeatherDisplay:10.37,2013-02-22 02:04:00,
2013-02-21 20:09:00,22.1,-5.4,29.98,North,0,0.0,0.0,29,0.00,CLR,OVC,0.00,WeatherDisplay:10.37,2013-02-22 02:09:00,
2013-02-21 20:14:00,22.1,-7.6,29.98,North,0,0.0,0.0,26,0.00,CLR,OVC,0.00,WeatherDisplay:10.37,2013-02-22 02:14:00,
2013-02-21 20:19:00,22.1,-9.3,29.98,North,0,0.0,0.0,24,0.00,CLR,OVC,0.00,WeatherDisplay:10.37,2013-02-22 02:19:00,
2013-02-21 20:24:00,22.3,-10.9,29.97,North,0,0.0,0.0,22,0.00,CLR,OVC,0.00,WeatherDisplay:10.37,2013-02-22 02:24:00,
2013-02-21 20:29:00,22.3,-11.8,29.98,North,0,0.0,0.0,21,0.00,CLR,OVC,0.00,WeatherDisplay:10.37,2013-02-22 02:29:00,
2013-02-21 20:34:00,22.3,-12.8,29.98,North,0,0.0,0.0,20,0.00,CLR,OVC,0.00,WeatherDisplay:10.37,2013-02-22 02:34:00,
2013-02-21 20:39:00,22.3,-13.8,29.98,North,0,0.0,0.0,19,0.00,CLR,OVC,0.00,WeatherDisplay:10.37,2013-02-22 02:39:00,
2013-02-21 20:44:00,22.3,-13.8,29.98,North,0,0.0,0.0,19,0.00,CLR,OVC,0.00,WeatherDisplay:10.37,2013-02-22 02:44:00,
2013-02-21 20:49:00,22.5,-15.9,29.98,North,0,0.0,0.0,17,0.00,CLR,OVC,0.00,WeatherDisplay:10.37,2013-02-22 02:49:00,
2013-02-21 20:54:00,22.5,-15.9,29.97,North,0,0.0,0.0,17,0.00,CLR,OVC,0.00,WeatherDisplay:10.37,2013-02-22 02:54:00,
2013-02-21 20:59:00,22.5,-17.1,29.96,North,0,0.0,0.0,16,0.00,CLR,OVC,0.00,WeatherDisplay:10.37,2013-02-22 02:59:00,
2013-02-21 21:04:00,22.6,-18.2,29.97,North,0,0.0,0.0,15,0.00,CLR,OVC,0.00,WeatherDisplay:10.37,2013-02-22 03:04:00,
2013-02-21 21:09:00,22.6,-22.5,29.96,North,0,0.0,0.0,12,0.00,CLR,OVC,0.00,WeatherDisplay:10.37,2013-02-22 03:09:00,
2013-02-21 21:14:00,22.6,-24.1,29.96,North,0,0.0,0.0,11,0.00,CLR,OVC,0.00,WeatherDisplay:10.37,2013-02-22 03:14:00,
2013-02-21 21:19:00,22.6,-27.9,29.95,North,0,0.0,0.0,9,0.00,CLR,OVC,0.00,WeatherDisplay:10.37,2013-02-22 03:19:00,
2013-02-21 21:24:00,22.6,-27.9,29.95,North,0,0.0,0.0,9,0.00,CLR,OVC,0.00,WeatherDisplay:10.37,2013-02-22 03:24:00,
2013-02-21 21:29:00,22.6,-27.9,29.96,North,0,0.0,0.0,9,0.00,CLR,OVC,0.00,WeatherDisplay:10.37,2013-02-22 03:29:00,
2013-02-21 21:34:00,22.6,-27.9,29.96,North,0,0.0,0.0,9,0.00,CLR,OVC,0.00,WeatherDisplay:10.37,2013-02-22 03:34:00,
2013-02-21 21:39:00,22.6,-27.9,29.95,North,0,0.0,0.0,9,0.00,CLR,OVC,0.00,WeatherDisplay:10.37,2013-02-22 03:39:00,
2013-02-21 21:44:00,22.6,-27.9,29.95,North,0,0.0,0.0,9,0.00,CLR,OVC,0.00,WeatherDisplay:10.37,2013-02-22 03:44:00,
2013-02-21 21:49:00,22.6,-27.9,29.95,North,0,0.0,0.0,9,0.00,CLR,OVC,0.00,WeatherDisplay:10.37,2013-02-22 03:49:00,
2013-02-21 21:54:00,22.6,-32.5,29.95,North,0,0.0,0.0,7,0.00,CLR,OVC,0.00,WeatherDisplay:10.37,2013-02-22 03:54:00,
2013-02-21 21:59:00,22.6,-32.5,29.94,North,0,0.0,0.0,7,0.00,CLR,OVC,0.00,WeatherDisplay:10.37,2013-02-22 03:59:00,
2013-02-21 22:05:00,22.6,-35.2,29.93,North,0,0.0,0.0,6,0.00,CLR,OVC,0.00,WeatherDisplay:10.37,2013-02-22 04:05:00,
2013-02-21 22:10:00,22.6,-38.5,29.92,North,0,0.0,0.0,5,0.00,CLR,OVC,0.00,WeatherDisplay:10.37,2013-02-22 04:10:00,
2013-02-21 22:15:00,22.6,-38.5,29.92,North,0,0.0,0.0,5,0.00,CLR,OVC,0.00,WeatherDisplay:10.37,2013-02-22 04:15:00,
2013-02-21 22:20:00,22.6,-38.5,29.91,North,0,0.0,0.0,5,0.00,CLR,OVC,0.00,WeatherDisplay:10.37,2013-02-22 04:20:00,
2013-02-21 22:25:00,22.6,-42.3,29.91,North,0,0.0,0.0,4,0.00,CLR,OVC,0.00,WeatherDisplay:10.37,2013-02-22 04:25:00,
2013-02-21 22:30:00,22.6,-53.8,29.90,North,0,0.0,0.0,2,0.00,CLR,OVC,0.00,WeatherDisplay:10.37,2013-02-22 04:30:00,
2013-02-21 22:35:00,22.6,-53.8,29.90,North,0,0.0,0.0,2,0.00,CLR,OVC,0.00,WeatherDisplay:10.37,2013-02-22 04:35:00,
2013-02-21 22:40:00,22.6,-53.8,29.90,North,0,0.0,0.0,2,0.00,CLR,OVC,0.00,WeatherDisplay:10.37,2013-02-22 04:40:00,
2013-02-21 22:45:00,22.6,-64.6,29.89,North,0,0.0,0.0,1,0.00,CLR,OVC,0.00,WeatherDisplay:10.37,2013-02-22 04:45:00,
2013-02-21 22:50:00,22.6,-64.6,29.89,North,0,0.0,0.0,1,0.00,CLR,OVC,0.00,WeatherDisplay:10.37,2013-02-22 04:50:00,
2013-02-21 22:55:00,22.8,-64.5,29.89,North,0,0.0,0.0,1,0.00,CLR,OVC,0.00,WeatherDisplay:10.37,2013-02-22 04:55:00,
2013-02-21 23:00:00,22.8,-64.5,29.89,North,0,0.0,0.0,1,0.00,CLR,OVC,0.00,WeatherDisplay:10.37,2013-02-22 05:00:00,
2013-02-21 23:05:00,22.8,-64.5,29.90,North,0,0.0,0.0,1,0.00,CLR,OVC,0.00,WeatherDisplay:10.37,2013-02-22 05:05:00,
2013-02-21 23:10:00,23.0,-64.4,29.90,North,0,0.0,0.0,1,0.00,CLR,OVC,0.00,WeatherDisplay:10.37,2013-02-22 05:10:00,
2013-02-21 23:15:00,23.0,-64.4,29.90,North,0,0.0,0.0,1,0.00,CLR,OVC,0.00,WeatherDisplay:10.37,2013-02-22 05:15:00,
2013-02-21 23:20:00,23.0,-64.4,29.90,North,0,0.0,0.0,1,0.00,CLR,OVC,0.00,WeatherDisplay:10.37,2013-02-22 05:20:00,
2013-02-21 23:25:00,23.0,-64.4,29.91,North,0,0.0,0.0,1,0.00,CLR,OVC,0.00,WeatherDisplay:10.37,2013-02-22 05:25:00,
2013-02-21 23:30:00,23.0,-64.4,29.90,North,0,0.0,0.0,1,0.00,CLR,OVC,0.00,WeatherDisplay:10.37,2013-02-22 05:30:00,
2013-02-21 23:35:00,23.0,-64.4,29.90,North,0,0.0,0.0,1,0.00,CLR,OVC,0.00,WeatherDisplay:10.37,2013-02-22 05:35:00,
2013-02-21 23:40:00,23.0,-64.4,29.90,North,0,0.0,0.0,1,0.00,CLR,OVC,0.00,WeatherDisplay:10.37,2013-02-22 05:40:00,
2013-02-21 23:45:00,23.0,-64.4,29.89,North,0,0.0,0.0,1,0.00,CLR,OVC,0.00,WeatherDisplay:10.37,2013-02-22 05:45:00,
2013-02-21 23:50:00,23.0,-64.4,29.89,North,0,0.0,0.0,1,0.00,CLR,OVC,0.00,WeatherDisplay:10.37,2013-02-22 05:50:00,
2013-02-21 23:55:00,23.0,-64.4,29.89,North,0,0.0,0.0,1,0.00,CLR,OVC,0.00,WeatherDisplay:10.37,2013-02-22 05:55:00,